Fairchance, Pennsylvania
Current Conditions -  °F | °C
As of 11:03 PM on Sunday 25 Jan 2015 (Local Time) from KMGW Reporting Station
Haze Haze  
Wind Chill: -2°   Ceiling: 200
Heat Index:   Visibility: 0.75mi
Dew Point: -1°   Wind: 6mph
Humidity: 89%   Direction: 10°N
Pressure: 29.74"   Gusts: NA
Location:  39.82°N, 79.75°W
Report Text: KMGW 260403Z AUTO 01005KT 3/4SM BR VV002 01/M01 A2974 RMK AO2 T00111006 TSNO
Loading
Personal Weather Stations






























Interactive Weather Map New forecast layout! Learn more

10-Day Weather Forecast

Advertisements
Track Severe Weather on mobile